New Pittsburgh, Ohio
Current Conditions -  °F | °C
As of 4:59 PM on Tuesday 21 Oct 2014 (Local Time) from KMFD Reporting Station
Overcast Overcast  
Wind Chill: 38°   Ceiling: 1200
Heat Index: 45°   Visibility: 10mi
Dew Point: 42°   Wind: 15mph
Humidity: 90%   Direction: 330°NNW
Pressure: 30.04"   Gusts: 24mph
Location:  40.9918°N, 82.6827°W
Report Text: KMFD 212059Z 33013G21KT 10SM BKN012 OVC019 07/06 A3004 RMK AO2 T00720056
Loading
Personal Weather Stations






























Interactive Weather Map
Tropical Storm Tracking
New forecast layout! Learn more

10-Day Weather Forecast

Advertisements
Track Severe Weather on mobile